createdAt,value
2019-03-20T00:00:27.500Z,2.25
2019-03-20T00:04:33.176Z,2.40
2019-03-20T00:08:38.867Z,2.43
2019-03-20T00:12:44.549Z,2.60
2019-03-20T00:16:50.214Z,3.13
2019-03-20T00:20:55.906Z,2.80
2019-03-20T00:25:01.650Z,2.60
2019-03-20T00:29:07.353Z,2.70
2019-03-20T00:33:13.179Z,2.40
2019-03-20T00:37:36.502Z,2.63
2019-03-20T00:42:18.743Z,3.20
2019-03-20T00:46:24.426Z,3.33
2019-03-20T00:50:30.110Z,3.07
2019-03-20T00:54:53.651Z,3.13
2019-03-20T00:59:20.004Z,3.13
2019-03-20T01:04:16.219Z,2.63
2019-03-20T01:09:16.620Z,2.67
2019-03-20T01:18:19.068Z,2.70
2019-03-20T01:22:24.775Z,3.13
2019-03-20T01:26:30.481Z,3.67
2019-03-20T01:35:24.010Z,3.80
2019-03-20T01:39:45.494Z,3.87
2019-03-20T01:44:18.069Z,3.47
2019-03-20T04:20:56.793Z,3.27
2019-03-20T04:25:02.656Z,4.00
2019-03-20T04:29:08.339Z,3.70
2019-03-20T04:33:14.101Z,4.30
2019-03-20T04:37:19.792Z,3.90
2019-03-20T04:41:25.459Z,3.30
2019-03-20T04:45:31.188Z,3.42
2019-03-20T04:49:36.869Z,3.77
2019-03-20T04:53:42.559Z,3.50
2019-03-20T04:57:48.238Z,3.23
2019-03-20T05:01:53.925Z,3.90
2019-03-20T05:05:59.619Z,3.60
2019-03-20T05:10:11.703Z,3.73
2019-03-20T05:14:17.369Z,3.53
2019-03-20T05:18:23.051Z,3.70
2019-03-20T05:22:28.733Z,4.17
2019-03-20T05:26:34.422Z,3.63
2019-03-20T05:30:40.111Z,3.63
2019-03-20T05:34:45.793Z,3.77
2019-03-20T05:38:51.484Z,3.55
2019-03-20T05:42:57.169Z,3.93
2019-03-20T05:47:02.851Z,4.10
2019-03-20T05:51:08.535Z,3.80
2019-03-20T05:55:14.618Z,4.30
2019-03-20T05:59:20.288Z,3.93
2019-03-20T06:03:25.964Z,4.03
2019-03-20T06:07:31.651Z,4.30
2019-03-20T06:11:37.453Z,3.60
2019-03-20T06:15:43.283Z,4.30
2019-03-20T06:19:48.924Z,3.93
2019-03-20T06:23:54.617Z,3.63
2019-03-20T06:28:00.310Z,3.97
2019-03-20T06:32:06.279Z,4.03
2019-03-20T06:36:11.966Z,4.83
2019-03-20T06:40:18.550Z,4.33
2019-03-20T06:44:24.229Z,4.97
2019-03-20T06:48:29.955Z,7.20
2019-03-20T06:52:35.611Z,4.87
2019-03-20T06:56:41.326Z,4.27
2019-03-20T07:00:51.640Z,4.20
2019-03-20T07:05:07.670Z,5.27
2019-03-20T07:09:37.302Z,5.03
2019-03-20T07:13:43.054Z,5.20
2019-03-20T07:17:48.742Z,4.30
2019-03-20T07:21:54.444Z,5.53
2019-03-20T07:26:00.172Z,5.08
2019-03-20T07:30:10.398Z,5.00
2019-03-20T07:34:16.075Z,5.67
2019-03-20T07:38:21.850Z,5.47
2019-03-20T07:42:27.591Z,6.00
2019-03-20T07:46:33.295Z,5.13
2019-03-20T07:50:39.079Z,5.27
2019-03-20T07:54:44.769Z,5.73
2019-03-20T07:58:50.485Z,6.12
2019-03-20T08:02:56.177Z,5.37
2019-03-20T08:07:01.876Z,5.60
2019-03-20T08:11:07.651Z,5.70
2019-03-20T08:15:18.853Z,5.60
2019-03-20T08:19:24.545Z,6.37
2019-03-20T08:23:31.301Z,5.30
2019-03-20T08:27:37.013Z,5.53
2019-03-20T08:31:42.733Z,5.30
2019-03-20T08:35:48.421Z,6.60
2019-03-20T08:39:55.072Z,6.57
2019-03-20T08:44:00.780Z,6.33
2019-03-20T08:48:06.475Z,9.60
2019-03-20T08:52:12.254Z,6.47
2019-03-20T08:56:17.936Z,5.80
2019-03-20T09:00:30.030Z,4.83
2019-03-20T09:04:35.830Z,5.20
2019-03-20T09:08:41.637Z,5.60
2019-03-20T09:12:48.661Z,4.80
2019-03-20T09:16:54.354Z,4.07
2019-03-20T09:21:00.073Z,3.73
2019-03-20T09:25:24.166Z,4.00
2019-03-20T09:29:36.031Z,3.70
2019-03-20T09:33:37.253Z,3.97
2019-03-20T09:37:51.230Z,3.77
2019-03-20T09:41:50.478Z,3.00
2019-03-20T09:45:57.099Z,3.00
2019-03-20T09:50:05.579Z,3.47
2019-03-20T09:54:11.292Z,2.90
2019-03-20T09:58:16.971Z,3.17
2019-03-20T10:02:22.709Z,4.20
2019-03-20T10:06:30.184Z,3.07
2019-03-20T10:10:35.789Z,2.70
2019-03-20T10:14:41.515Z,2.50
2019-03-20T10:18:47.190Z,2.80
2019-03-20T10:22:52.883Z,2.77
2019-03-20T10:26:58.577Z,2.77
2019-03-20T10:31:04.392Z,3.33
2019-03-20T10:35:10.712Z,2.60
2019-03-20T10:39:16.373Z,2.37
2019-03-20T10:43:22.063Z,2.67
2019-03-20T10:47:27.760Z,2.60
2019-03-20T10:51:33.480Z,2.92
2019-03-20T10:55:39.179Z,2.70
2019-03-20T10:59:44.924Z,2.47
2019-03-20T11:03:52.307Z,2.20
2019-03-20T11:07:58.006Z,3.10
2019-03-20T11:12:03.736Z,3.33
2019-03-20T11:16:09.454Z,3.25
2019-03-20T11:20:18.816Z,2.63
2019-03-20T11:24:24.502Z,3.00
2019-03-20T11:28:30.216Z,3.23
2019-03-20T11:32:35.913Z,2.63
2019-03-20T11:36:41.648Z,2.57
2019-03-20T11:40:47.359Z,2.80
2019-03-20T11:44:53.111Z,2.50
2019-03-20T11:49:00.617Z,2.42
2019-03-20T11:53:08.032Z,2.50
2019-03-20T11:57:13.893Z,2.50
2019-03-20T12:01:19.589Z,2.30
2019-03-20T12:05:25.411Z,2.30
2019-03-20T12:09:40.748Z,2.40
2019-03-20T12:13:38.550Z,2.75
2019-03-20T12:17:44.304Z,2.30
2019-03-20T12:21:49.996Z,2.37
2019-03-20T12:25:55.695Z,2.57
2019-03-20T12:30:01.450Z,2.30
2019-03-20T12:34:07.218Z,2.40
2019-03-20T12:38:15.402Z,2.90
2019-03-20T12:42:20.617Z,2.20
2019-03-20T12:46:40.652Z,3.20
2019-03-20T12:50:33.848Z,2.77
2019-03-20T12:54:39.527Z,2.70
2019-03-20T12:58:45.238Z,3.00
2019-03-20T13:02:51.351Z,2.83
2019-03-20T13:06:57.061Z,2.50
2019-03-20T13:11:02.820Z,3.10
2019-03-20T13:15:15.646Z,2.70
2019-03-20T13:19:21.343Z,2.10
2019-03-20T13:23:31.783Z,2.30
2019-03-20T13:27:37.823Z,2.83
2019-03-20T13:31:43.527Z,2.27
2019-03-20T13:35:49.299Z,2.43
2019-03-20T13:39:55.002Z,2.40
2019-03-20T13:44:00.701Z,2.43
2019-03-20T13:48:06.501Z,2.50
2019-03-20T13:52:12.221Z,2.70
2019-03-20T13:56:17.899Z,2.53
2019-03-20T14:00:25.115Z,2.50
2019-03-20T14:04:30.820Z,2.60
2019-03-20T14:08:36.536Z,2.03
2019-03-20T14:12:42.236Z,2.50
2019-03-20T14:16:47.934Z,2.30
2019-03-20T14:20:53.625Z,2.70
2019-03-20T14:24:59.324Z,2.60
2019-03-20T14:29:05.185Z,2.33
2019-03-20T14:33:10.875Z,2.47
2019-03-20T14:37:16.575Z,2.10
2019-03-20T14:41:22.261Z,2.50
2019-03-20T14:45:28.088Z,2.53
2019-03-20T14:49:33.794Z,2.57
2019-03-20T14:53:39.477Z,2.30
2019-03-20T14:57:45.157Z,2.00
2019-03-20T15:01:50.873Z,2.00
2019-03-20T15:05:56.582Z,2.20
2019-03-20T15:10:02.326Z,2.27
2019-03-20T15:14:08.081Z,2.20
2019-03-20T15:18:13.786Z,2.13
2019-03-20T15:22:19.493Z,2.60
2019-03-20T15:26:25.186Z,2.60
2019-03-20T15:30:31.123Z,2.47
2019-03-20T15:34:36.815Z,1.97
2019-03-20T15:38:42.568Z,2.20
2019-03-20T15:42:48.268Z,2.10
2019-03-20T15:46:53.968Z,2.03
2019-03-20T15:51:00.935Z,2.20
2019-03-20T15:55:12.237Z,2.22
2019-03-20T15:59:17.914Z,2.60
2019-03-20T16:03:28.279Z,2.30
2019-03-20T16:07:33.996Z,3.30
2019-03-20T16:11:39.684Z,2.73
2019-03-20T16:15:45.392Z,11.87
2019-03-20T16:19:52.059Z,2.60
2019-03-20T16:23:57.748Z,2.80
2019-03-20T16:28:03.436Z,2.30
2019-03-20T16:32:09.121Z,2.53
2019-03-20T16:36:15.894Z,2.60
2019-03-20T16:40:30.649Z,3.20
2019-03-20T16:44:36.340Z,2.23
2019-03-20T16:48:42.040Z,2.00
2019-03-20T16:52:49.434Z,2.00
2019-03-20T16:56:55.143Z,2.97
2019-03-20T17:01:00.837Z,3.37
2019-03-20T17:05:07.889Z,2.60
2019-03-20T17:09:13.661Z,1.47
2019-03-20T17:13:19.425Z,1.87
2019-03-20T17:17:25.122Z,2.67
2019-03-20T17:21:30.825Z,2.53
2019-03-20T17:25:36.690Z,2.67
2019-03-20T17:29:43.350Z,2.37
2019-03-20T17:33:49.020Z,1.80
2019-03-20T17:37:58.079Z,2.50
2019-03-20T17:42:03.903Z,2.53
2019-03-20T17:46:09.679Z,2.10
2019-03-20T17:50:30.088Z,2.13
2019-03-20T17:54:35.786Z,2.07
2019-03-20T17:58:41.505Z,2.77
2019-03-20T18:02:47.211Z,2.43
2019-03-20T18:06:52.994Z,3.03
2019-03-20T18:10:58.683Z,3.93
2019-03-20T18:15:07.134Z,3.57
2019-03-20T18:19:12.823Z,2.60
2019-03-20T18:23:18.590Z,3.70
2019-03-20T18:27:25.902Z,4.07
2019-03-20T18:36:32.540Z,3.60
2019-03-20T18:40:38.403Z,3.10
2019-03-20T18:44:44.129Z,3.37
2019-03-20T18:48:49.845Z,3.20
2019-03-20T18:52:55.613Z,3.60
2019-03-20T18:57:01.408Z,3.53
2019-03-20T19:01:07.157Z,3.27
2019-03-20T19:05:43.876Z,3.80
2019-03-20T19:09:49.738Z,3.53
2019-03-20T19:13:55.464Z,3.40
2019-03-20T19:18:03.986Z,4.30
2019-03-20T19:22:09.758Z,4.37
2019-03-20T19:26:15.549Z,4.10
2019-03-20T19:30:26.237Z,3.72
2019-03-20T19:34:32.025Z,3.13
2019-03-20T19:38:37.775Z,3.03
2019-03-20T19:42:43.471Z,3.60
2019-03-20T19:46:49.283Z,2.30
2019-03-20T19:50:54.994Z,3.40
2019-03-20T19:55:00.776Z,3.33
2019-03-20T19:59:06.447Z,2.90
2019-03-20T20:03:12.137Z,3.97
2019-03-20T20:07:17.983Z,2.80
2019-03-20T20:11:23.706Z,3.90
2019-03-20T20:15:31.314Z,3.60
2019-03-20T20:19:36.983Z,3.30
2019-03-20T20:23:42.677Z,4.03
2019-03-20T20:27:48.386Z,3.70
2019-03-20T20:31:54.099Z,3.57
2019-03-20T20:35:59.898Z,3.00
2019-03-20T20:40:10.135Z,3.13
2019-03-20T20:44:15.926Z,3.87
2019-03-20T20:48:21.625Z,3.27
2019-03-20T20:52:27.357Z,3.35
2019-03-20T20:56:33.054Z,3.27
2019-03-20T21:00:38.768Z,3.33
2019-03-20T21:04:45.436Z,3.73
2019-03-20T21:08:51.152Z,3.97
2019-03-20T21:12:57.632Z,3.17
2019-03-20T21:17:04.242Z,3.30
2019-03-20T21:21:09.942Z,3.27
2019-03-20T21:25:15.697Z,3.17
2019-03-20T21:29:52.716Z,3.70
2019-03-20T21:34:23.917Z,3.93
2019-03-20T21:38:30.044Z,4.27
2019-03-20T21:43:17.723Z,4.37
2019-03-20T21:47:33.293Z,3.12
2019-03-20T21:51:39.003Z,3.17
2019-03-20T21:56:22.004Z,3.00
2019-03-20T22:00:58.870Z,3.60
2019-03-20T22:05:42.012Z,3.37
2019-03-20T22:10:26.466Z,3.30
2019-03-20T22:14:32.153Z,3.63
2019-03-20T22:19:24.260Z,3.97
2019-03-20T22:24:10.312Z,3.50
2019-03-20T22:28:56.353Z,3.77
2019-03-20T22:33:56.262Z,3.60
2019-03-20T22:38:04.963Z,3.33
2019-03-20T22:42:18.196Z,3.33
2019-03-20T22:47:12.113Z,3.13
2019-03-20T22:51:34.016Z,2.93
2019-03-20T22:56:11.950Z,2.70
2019-03-20T23:00:17.846Z,3.20
2019-03-20T23:04:38.056Z,2.97
2019-03-20T23:08:43.772Z,2.65
2019-03-20T23:12:49.534Z,2.93
2019-03-20T23:16:55.251Z,2.77
2019-03-20T23:21:00.939Z,2.87
2019-03-20T23:25:11.842Z,3.27
2019-03-20T23:29:17.630Z,2.87
2019-03-20T23:33:23.387Z,2.97
2019-03-20T23:37:29.087Z,2.90
2019-03-20T23:41:35.852Z,3.20
2019-03-20T23:45:41.869Z,3.57
2019-03-20T23:49:47.621Z,3.00
2019-03-20T23:53:54.543Z,3.40
2019-03-20T23:58:00.226Z,3.00
